sensor_id;sensor_type;location;lat;lon;timestamp;P1;durP1;ratioP1;P2;durP2;ratioP2
69956;SDS011;57283;54.816;9.482;2022-07-29T00:00:37;5.85;;;2.40;;
69956;SDS011;57283;54.816;9.482;2022-07-29T00:03:05;4.93;;;2.20;;
69956;SDS011;57283;54.816;9.482;2022-07-29T00:05:34;5.65;;;2.35;;
69956;SDS011;57283;54.816;9.482;2022-07-29T00:08:02;5.33;;;2.30;;
69956;SDS011;57283;54.816;9.482;2022-07-29T00:10:34;5.65;;;2.22;;
69956;SDS011;57283;54.816;9.482;2022-07-29T00:13:02;5.50;;;2.22;;
69956;SDS011;57283;54.816;9.482;2022-07-29T00:15:29;5.70;;;2.38;;
69956;SDS011;57283;54.816;9.482;2022-07-29T00:17:57;7.50;;;2.50;;
69956;SDS011;57283;54.816;9.482;2022-07-29T00:20:25;6.37;;;2.03;;
69956;SDS011;57283;54.816;9.482;2022-07-29T00:22:54;5.75;;;2.40;;
69956;SDS011;57283;54.816;9.482;2022-07-29T00:25:21;5.55;;;2.20;;
69956;SDS011;57283;54.816;9.482;2022-07-29T00:27:49;5.47;;;2.30;;
69956;SDS011;57283;54.816;9.482;2022-07-29T00:30:16;6.38;;;2.30;;
69956;SDS011;57283;54.816;9.482;2022-07-29T00:32:44;4.13;;;2.10;;
69956;SDS011;57283;54.816;9.482;2022-07-29T00:35:11;4.85;;;2.20;;
69956;SDS011;57283;54.816;9.482;2022-07-29T00:38:00;5.53;;;2.38;;
69956;SDS011;57283;54.816;9.482;2022-07-29T00:40:27;6.05;;;2.17;;
69956;SDS011;57283;54.816;9.482;2022-07-29T00:42:55;6.28;;;2.38;;
69956;SDS011;57283;54.816;9.482;2022-07-29T00:45:24;4.47;;;2.00;;
69956;SDS011;57283;54.816;9.482;2022-07-29T00:47:52;6.03;;;2.60;;
69956;SDS011;57283;54.816;9.482;2022-07-29T00:50:19;6.25;;;2.90;;
69956;SDS011;57283;54.816;9.482;2022-07-29T00:52:47;4.95;;;2.50;;
69956;SDS011;57283;54.816;9.482;2022-07-29T00:55:16;7.28;;;2.30;;
69956;SDS011;57283;54.816;9.482;2022-07-29T00:57:44;5.10;;;2.60;;
69956;SDS011;57283;54.816;9.482;2022-07-29T01:00:12;5.82;;;2.40;;
69956;SDS011;57283;54.816;9.482;2022-07-29T01:02:41;5.30;;;2.40;;
69956;SDS011;57283;54.816;9.482;2022-07-29T01:05:09;5.40;;;2.30;;
69956;SDS011;57283;54.816;9.482;2022-07-29T01:07:38;5.47;;;2.30;;
69956;SDS011;57283;54.816;9.482;2022-07-29T01:10:06;4.70;;;2.40;;
69956;SDS011;57283;54.816;9.482;2022-07-29T01:12:36;5.15;;;2.40;;
69956;SDS011;57283;54.816;9.482;2022-07-29T01:15:05;4.57;;;2.47;;
69956;SDS011;57283;54.816;9.482;2022-07-29T01:17:36;4.97;;;2.30;;
69956;SDS011;57283;54.816;9.482;2022-07-29T01:20:06;5.72;;;2.67;;
69956;SDS011;57283;54.816;9.482;2022-07-29T01:22:42;5.50;;;2.20;;
69956;SDS011;57283;54.816;9.482;2022-07-29T01:25:25;4.47;;;2.35;;
69956;SDS011;57283;54.816;9.482;2022-07-29T01:28:10;7.25;;;2.60;;
69956;SDS011;57283;54.816;9.482;2022-07-29T01:30:43;6.75;;;2.38;;
69956;SDS011;57283;54.816;9.482;2022-07-29T01:33:13;6.40;;;2.40;;
69956;SDS011;57283;54.816;9.482;2022-07-29T01:36:05;4.80;;;2.33;;
69956;SDS011;57283;54.816;9.482;2022-07-29T01:38:34;5.43;;;2.20;;
69956;SDS011;57283;54.816;9.482;2022-07-29T01:41:04;4.85;;;2.20;;
69956;SDS011;57283;54.816;9.482;2022-07-29T01:43:35;6.53;;;2.20;;
69956;SDS011;57283;54.816;9.482;2022-07-29T01:46:09;5.82;;;2.20;;
69956;SDS011;57283;54.816;9.482;2022-07-29T01:48:39;5.67;;;2.60;;
69956;SDS011;57283;54.816;9.482;2022-07-29T01:51:10;5.55;;;2.30;;
69956;SDS011;57283;54.816;9.482;2022-07-29T01:53:42;5.10;;;2.58;;
69956;SDS011;57283;54.816;9.482;2022-07-29T01:56:11;5.15;;;2.67;;
69956;SDS011;57283;54.816;9.482;2022-07-29T01:58:40;4.72;;;2.30;;
69956;SDS011;57283;54.816;9.482;2022-07-29T02:01:09;5.13;;;2.50;;
69956;SDS011;57283;54.816;9.482;2022-07-29T02:03:38;5.00;;;2.60;;
69956;SDS011;57283;54.816;9.482;2022-07-29T02:06:06;5.85;;;2.80;;
69956;SDS011;57283;54.816;9.482;2022-07-29T02:08:34;5.20;;;2.70;;
69956;SDS011;57283;54.816;9.482;2022-07-29T02:11:04;5.47;;;2.88;;
69956;SDS011;57283;54.816;9.482;2022-07-29T02:13:32;5.73;;;2.60;;
69956;SDS011;57283;54.816;9.482;2022-07-29T02:16:01;7.30;;;2.80;;
69956;SDS011;57283;54.816;9.482;2022-07-29T02:18:31;4.70;;;2.42;;
69956;SDS011;57283;54.816;9.482;2022-07-29T02:20:59;6.25;;;2.60;;
69956;SDS011;57283;54.816;9.482;2022-07-29T02:23:28;5.97;;;2.63;;
69956;SDS011;57283;54.816;9.482;2022-07-29T02:26:16;6.00;;;2.67;;
69956;SDS011;57283;54.816;9.482;2022-07-29T02:28:44;6.57;;;2.80;;
69956;SDS011;57283;54.816;9.482;2022-07-29T02:31:12;5.38;;;2.50;;
69956;SDS011;57283;54.816;9.482;2022-07-29T02:33:42;5.75;;;2.92;;
69956;SDS011;57283;54.816;9.482;2022-07-29T02:36:10;6.07;;;2.92;;
69956;SDS011;57283;54.816;9.482;2022-07-29T02:38:38;5.87;;;2.83;;
69956;SDS011;57283;54.816;9.482;2022-07-29T02:41:24;6.10;;;2.90;;
69956;SDS011;57283;54.816;9.482;2022-07-29T02:43:56;7.57;;;3.08;;
69956;SDS011;57283;54.816;9.482;2022-07-29T02:46:26;7.47;;;3.03;;
69956;SDS011;57283;54.816;9.482;2022-07-29T02:48:57;6.65;;;2.90;;
69956;SDS011;57283;54.816;9.482;2022-07-29T02:51:27;5.10;;;2.73;;
69956;SDS011;57283;54.816;9.482;2022-07-29T02:54:10;5.05;;;2.60;;
69956;SDS011;57283;54.816;9.482;2022-07-29T02:56:38;7.28;;;3.30;;
69956;SDS011;57283;54.816;9.482;2022-07-29T02:59:08;5.55;;;2.83;;
69956;SDS011;57283;54.816;9.482;2022-07-29T03:01:38;6.10;;;3.35;;
69956;SDS011;57283;54.816;9.482;2022-07-29T03:04:08;11.07;;;3.93;;
69956;SDS011;57283;54.816;9.482;2022-07-29T03:06:36;9.10;;;5.35;;
69956;SDS011;57283;54.816;9.482;2022-07-29T03:09:05;7.78;;;4.10;;
69956;SDS011;57283;54.816;9.482;2022-07-29T03:11:38;6.50;;;3.75;;
69956;SDS011;57283;54.816;9.482;2022-07-29T03:14:16;6.95;;;3.50;;
69956;SDS011;57283;54.816;9.482;2022-07-29T03:16:45;7.27;;;3.50;;
69956;SDS011;57283;54.816;9.482;2022-07-29T03:19:14;6.00;;;3.35;;
69956;SDS011;57283;54.816;9.482;2022-07-29T03:21:42;6.80;;;3.50;;
69956;SDS011;57283;54.816;9.482;2022-07-29T03:24:10;7.82;;;3.42;;
69956;SDS011;57283;54.816;9.482;2022-07-29T03:26:37;6.15;;;3.67;;
69956;SDS011;57283;54.816;9.482;2022-07-29T03:29:05;8.57;;;3.30;;
69956;SDS011;57283;54.816;9.482;2022-07-29T03:31:38;6.60;;;3.22;;
69956;SDS011;57283;54.816;9.482;2022-07-29T03:34:08;6.70;;;3.50;;
69956;SDS011;57283;54.816;9.482;2022-07-29T03:36:37;6.57;;;3.50;;
69956;SDS011;57283;54.816;9.482;2022-07-29T03:39:07;7.55;;;3.72;;
69956;SDS011;57283;54.816;9.482;2022-07-29T03:41:36;6.60;;;3.80;;
69956;SDS011;57283;54.816;9.482;2022-07-29T03:44:07;7.45;;;3.33;;
69956;SDS011;57283;54.816;9.482;2022-07-29T03:46:36;7.22;;;3.35;;
69956;SDS011;57283;54.816;9.482;2022-07-29T03:49:05;9.18;;;3.40;;
69956;SDS011;57283;54.816;9.482;2022-07-29T03:51:34;7.72;;;3.70;;
69956;SDS011;57283;54.816;9.482;2022-07-29T03:54:03;9.00;;;4.80;;
69956;SDS011;57283;54.816;9.482;2022-07-29T03:56:37;7.78;;;3.80;;
69956;SDS011;57283;54.816;9.482;2022-07-29T03:59:05;6.38;;;3.83;;
69956;SDS011;57283;54.816;9.482;2022-07-29T04:01:33;7.22;;;3.65;;
69956;SDS011;57283;54.816;9.482;2022-07-29T04:04:01;6.70;;;3.88;;
69956;SDS011;57283;54.816;9.482;2022-07-29T04:06:37;7.80;;;3.50;;
69956;SDS011;57283;54.816;9.482;2022-07-29T04:09:06;6.65;;;3.90;;
69956;SDS011;57283;54.816;9.482;2022-07-29T04:11:35;6.68;;;3.42;;
69956;SDS011;57283;54.816;9.482;2022-07-29T04:14:23;7.57;;;3.80;;
69956;SDS011;57283;54.816;9.482;2022-07-29T04:16:50;7.93;;;3.67;;
69956;SDS011;57283;54.816;9.482;2022-07-29T04:19:19;8.00;;;4.40;;
69956;SDS011;57283;54.816;9.482;2022-07-29T04:21:46;8.50;;;3.70;;
69956;SDS011;57283;54.816;9.482;2022-07-29T04:24:15;8.13;;;4.03;;
69956;SDS011;57283;54.816;9.482;2022-07-29T04:26:44;8.23;;;3.70;;
69956;SDS011;57283;54.816;9.482;2022-07-29T04:29:12;8.05;;;3.78;;
69956;SDS011;57283;54.816;9.482;2022-07-29T04:31:40;6.83;;;3.80;;
69956;SDS011;57283;54.816;9.482;2022-07-29T04:34:08;7.65;;;4.00;;
69956;SDS011;57283;54.816;9.482;2022-07-29T04:36:36;11.05;;;3.75;;
69956;SDS011;57283;54.816;9.482;2022-07-29T04:39:04;7.82;;;3.60;;
69956;SDS011;57283;54.816;9.482;2022-07-29T04:41:32;7.18;;;3.88;;
69956;SDS011;57283;54.816;9.482;2022-07-29T04:44:01;6.57;;;3.80;;
69956;SDS011;57283;54.816;9.482;2022-07-29T04:46:33;7.30;;;4.00;;
69956;SDS011;57283;54.816;9.482;2022-07-29T04:49:01;7.22;;;3.90;;
69956;SDS011;57283;54.816;9.482;2022-07-29T04:51:29;7.97;;;4.03;;
69956;SDS011;57283;54.816;9.482;2022-07-29T04:53:56;6.95;;;3.90;;
69956;SDS011;57283;54.816;9.482;2022-07-29T04:56:24;7.83;;;3.90;;
69956;SDS011;57283;54.816;9.482;2022-07-29T04:58:53;7.20;;;3.55;;
69956;SDS011;57283;54.816;9.482;2022-07-29T05:01:21;6.78;;;4.05;;
69956;SDS011;57283;54.816;9.482;2022-07-29T05:03:48;8.45;;;4.05;;
69956;SDS011;57283;54.816;9.482;2022-07-29T05:06:16;8.48;;;4.13;;
69956;SDS011;57283;54.816;9.482;2022-07-29T05:08:43;6.00;;;3.67;;
69956;SDS011;57283;54.816;9.482;2022-07-29T05:11:11;8.15;;;3.70;;
69956;SDS011;57283;54.816;9.482;2022-07-29T05:13:46;9.25;;;4.25;;
69956;SDS011;57283;54.816;9.482;2022-07-29T05:16:15;6.28;;;3.67;;
69956;SDS011;57283;54.816;9.482;2022-07-29T05:18:43;7.20;;;4.05;;
69956;SDS011;57283;54.816;9.482;2022-07-29T05:21:10;8.33;;;3.83;;
69956;SDS011;57283;54.816;9.482;2022-07-29T05:23:38;7.60;;;4.00;;
69956;SDS011;57283;54.816;9.482;2022-07-29T05:26:05;7.60;;;4.05;;
69956;SDS011;57283;54.816;9.482;2022-07-29T05:28:33;7.70;;;3.60;;
69956;SDS011;57283;54.816;9.482;2022-07-29T05:31:01;7.70;;;4.10;;
69956;SDS011;57283;54.816;9.482;2022-07-29T05:33:30;7.13;;;3.60;;
69956;SDS011;57283;54.816;9.482;2022-07-29T05:36:02;7.25;;;4.07;;
69956;SDS011;57283;54.816;9.482;2022-07-29T05:38:31;7.57;;;3.90;;
69956;SDS011;57283;54.816;9.482;2022-07-29T05:40:59;6.15;;;3.63;;
69956;SDS011;57283;54.816;9.482;2022-07-29T05:43:27;7.07;;;3.80;;
69956;SDS011;57283;54.816;9.482;2022-07-29T05:45:55;7.60;;;3.87;;
69956;SDS011;57283;54.816;9.482;2022-07-29T05:48:23;7.25;;;3.70;;
69956;SDS011;57283;54.816;9.482;2022-07-29T05:50:52;5.95;;;3.65;;
69956;SDS011;57283;54.816;9.482;2022-07-29T05:53:19;8.23;;;3.50;;
69956;SDS011;57283;54.816;9.482;2022-07-29T05:55:47;6.45;;;3.30;;
69956;SDS011;57283;54.816;9.482;2022-07-29T05:58:15;7.17;;;3.37;;
69956;SDS011;57283;54.816;9.482;2022-07-29T06:00:42;6.32;;;3.13;;
69956;SDS011;57283;54.816;9.482;2022-07-29T06:03:10;6.03;;;3.20;;
69956;SDS011;57283;54.816;9.482;2022-07-29T06:05:38;8.05;;;3.45;;
69956;SDS011;57283;54.816;9.482;2022-07-29T06:08:07;8.15;;;3.92;;
69956;SDS011;57283;54.816;9.482;2022-07-29T06:10:34;8.00;;;2.97;;
69956;SDS011;57283;54.816;9.482;2022-07-29T06:13:02;8.38;;;4.68;;
69956;SDS011;57283;54.816;9.482;2022-07-29T06:15:30;6.32;;;3.55;;
69956;SDS011;57283;54.816;9.482;2022-07-29T06:17:57;5.65;;;3.05;;
69956;SDS011;57283;54.816;9.482;2022-07-29T06:20:27;5.82;;;3.42;;
69956;SDS011;57283;54.816;9.482;2022-07-29T06:22:56;6.10;;;3.20;;
69956;SDS011;57283;54.816;9.482;2022-07-29T06:25:25;8.77;;;3.05;;
69956;SDS011;57283;54.816;9.482;2022-07-29T06:27:55;7.88;;;3.58;;
69956;SDS011;57283;54.816;9.482;2022-07-29T06:30:23;6.82;;;3.08;;
69956;SDS011;57283;54.816;9.482;2022-07-29T06:32:50;8.02;;;3.60;;
69956;SDS011;57283;54.816;9.482;2022-07-29T06:35:18;5.60;;;3.27;;
69956;SDS011;57283;54.816;9.482;2022-07-29T06:38:06;8.85;;;4.25;;
69956;SDS011;57283;54.816;9.482;2022-07-29T06:40:54;12.27;;;6.20;;
69956;SDS011;57283;54.816;9.482;2022-07-29T06:43:29;9.20;;;3.90;;
69956;SDS011;57283;54.816;9.482;2022-07-29T06:45:59;7.75;;;3.85;;
69956;SDS011;57283;54.816;9.482;2022-07-29T06:48:27;5.60;;;2.70;;
69956;SDS011;57283;54.816;9.482;2022-07-29T06:50:55;6.38;;;3.47;;
69956;SDS011;57283;54.816;9.482;2022-07-29T06:53:23;5.93;;;2.80;;
69956;SDS011;57283;54.816;9.482;2022-07-29T06:55:50;6.95;;;3.20;;
69956;SDS011;57283;54.816;9.482;2022-07-29T06:58:19;5.20;;;2.78;;
69956;SDS011;57283;54.816;9.482;2022-07-29T07:00:47;5.73;;;2.80;;
69956;SDS011;57283;54.816;9.482;2022-07-29T07:03:15;6.70;;;3.13;;
69956;SDS011;57283;54.816;9.482;2022-07-29T07:05:43;5.60;;;2.55;;
69956;SDS011;57283;54.816;9.482;2022-07-29T07:08:11;5.63;;;2.30;;
69956;SDS011;57283;54.816;9.482;2022-07-29T07:10:39;5.50;;;2.30;;
69956;SDS011;57283;54.816;9.482;2022-07-29T07:13:06;4.97;;;2.20;;
69956;SDS011;57283;54.816;9.482;2022-07-29T07:15:36;5.43;;;2.20;;
69956;SDS011;57283;54.816;9.482;2022-07-29T07:18:05;5.55;;;2.03;;
69956;SDS011;57283;54.816;9.482;2022-07-29T07:20:33;4.10;;;1.85;;
69956;SDS011;57283;54.816;9.482;2022-07-29T07:23:00;5.22;;;2.10;;
69956;SDS011;57283;54.816;9.482;2022-07-29T07:25:28;3.90;;;2.10;;
69956;SDS011;57283;54.816;9.482;2022-07-29T07:27:56;4.60;;;1.80;;
69956;SDS011;57283;54.816;9.482;2022-07-29T07:30:23;5.47;;;2.30;;
69956;SDS011;57283;54.816;9.482;2022-07-29T07:32:52;4.82;;;2.17;;
69956;SDS011;57283;54.816;9.482;2022-07-29T07:35:20;5.63;;;2.22;;
69956;SDS011;57283;54.816;9.482;2022-07-29T07:37:47;4.07;;;2.00;;
69956;SDS011;57283;54.816;9.482;2022-07-29T07:40:15;6.32;;;2.10;;
69956;SDS011;57283;54.816;9.482;2022-07-29T07:42:44;7.05;;;2.20;;
69956;SDS011;57283;54.816;9.482;2022-07-29T07:45:11;5.47;;;2.17;;
69956;SDS011;57283;54.816;9.482;2022-07-29T07:47:41;5.50;;;2.20;;
69956;SDS011;57283;54.816;9.482;2022-07-29T07:50:12;6.70;;;2.10;;
69956;SDS011;57283;54.816;9.482;2022-07-29T07:52:48;5.78;;;2.10;;
69956;SDS011;57283;54.816;9.482;2022-07-29T07:55:16;5.28;;;2.40;;
69956;SDS011;57283;54.816;9.482;2022-07-29T07:57:43;10.23;;;2.42;;
69956;SDS011;57283;54.816;9.482;2022-07-29T08:00:12;6.15;;;2.47;;
69956;SDS011;57283;54.816;9.482;2022-07-29T08:02:39;7.30;;;2.37;;
69956;SDS011;57283;54.816;9.482;2022-07-29T08:05:09;8.65;;;2.53;;
69956;SDS011;57283;54.816;9.482;2022-07-29T08:07:39;4.82;;;2.47;;
69956;SDS011;57283;54.816;9.482;2022-07-29T08:10:07;9.38;;;2.67;;
69956;SDS011;57283;54.816;9.482;2022-07-29T08:12:35;4.82;;;2.28;;
69956;SDS011;57283;54.816;9.482;2022-07-29T08:15:03;5.60;;;2.53;;
69956;SDS011;57283;54.816;9.482;2022-07-29T08:17:30;6.45;;;2.47;;
69956;SDS011;57283;54.816;9.482;2022-07-29T08:20:00;7.22;;;2.50;;
69956;SDS011;57283;54.816;9.482;2022-07-29T08:22:28;11.05;;;2.90;;
69956;SDS011;57283;54.816;9.482;2022-07-29T08:24:57;5.68;;;2.90;;
69956;SDS011;57283;54.816;9.482;2022-07-29T08:27:25;4.57;;;2.57;;
69956;SDS011;57283;54.816;9.482;2022-07-29T08:30:10;5.03;;;2.55;;
69956;SDS011;57283;54.816;9.482;2022-07-29T08:32:37;5.03;;;2.72;;
69956;SDS011;57283;54.816;9.482;2022-07-29T08:35:22;5.20;;;2.70;;
69956;SDS011;57283;54.816;9.482;2022-07-29T08:37:49;5.93;;;3.30;;
69956;SDS011;57283;54.816;9.482;2022-07-29T08:40:18;5.30;;;2.70;;
69956;SDS011;57283;54.816;9.482;2022-07-29T08:42:57;5.30;;;2.63;;
69956;SDS011;57283;54.816;9.482;2022-07-29T08:45:24;5.35;;;3.05;;
69956;SDS011;57283;54.816;9.482;2022-07-29T08:47:52;5.47;;;2.78;;
69956;SDS011;57283;54.816;9.482;2022-07-29T08:50:20;5.93;;;3.47;;
69956;SDS011;57283;54.816;9.482;2022-07-29T08:52:47;7.60;;;3.27;;
69956;SDS011;57283;54.816;9.482;2022-07-29T08:55:16;6.13;;;3.10;;
69956;SDS011;57283;54.816;9.482;2022-07-29T08:57:48;5.85;;;3.22;;
69956;SDS011;57283;54.816;9.482;2022-07-29T09:00:22;5.47;;;2.95;;
69956;SDS011;57283;54.816;9.482;2022-07-29T09:02:51;6.00;;;2.85;;
69956;SDS011;57283;54.816;9.482;2022-07-29T09:05:22;4.97;;;3.38;;
69956;SDS011;57283;54.816;9.482;2022-07-29T09:07:51;5.70;;;3.40;;
69956;SDS011;57283;54.816;9.482;2022-07-29T09:10:19;5.03;;;3.50;;
69956;SDS011;57283;54.816;9.482;2022-07-29T09:12:48;6.55;;;3.42;;
69956;SDS011;57283;54.816;9.482;2022-07-29T09:15:16;6.72;;;3.30;;
69956;SDS011;57283;54.816;9.482;2022-07-29T09:17:45;5.90;;;3.05;;
69956;SDS011;57283;54.816;9.482;2022-07-29T09:20:14;5.30;;;3.28;;
69956;SDS011;57283;54.816;9.482;2022-07-29T09:22:42;6.70;;;3.10;;
69956;SDS011;57283;54.816;9.482;2022-07-29T09:25:12;7.17;;;2.90;;
69956;SDS011;57283;54.816;9.482;2022-07-29T09:27:40;5.45;;;3.45;;
69956;SDS011;57283;54.816;9.482;2022-07-29T09:30:10;6.88;;;3.40;;
69956;SDS011;57283;54.816;9.482;2022-07-29T09:35:21;4.93;;;2.90;;
69956;SDS011;57283;54.816;9.482;2022-07-29T09:37:49;5.70;;;3.00;;
69956;SDS011;57283;54.816;9.482;2022-07-29T09:40:17;7.70;;;3.30;;
69956;SDS011;57283;54.816;9.482;2022-07-29T09:42:45;6.68;;;3.60;;
69956;SDS011;57283;54.816;9.482;2022-07-29T09:45:25;5.80;;;3.20;;
69956;SDS011;57283;54.816;9.482;2022-07-29T09:47:53;5.03;;;3.20;;
69956;SDS011;57283;54.816;9.482;2022-07-29T09:50:23;5.50;;;3.27;;
69956;SDS011;57283;54.816;9.482;2022-07-29T09:53:01;8.23;;;3.30;;
69956;SDS011;57283;54.816;9.482;2022-07-29T09:55:29;5.45;;;3.00;;
69956;SDS011;57283;54.816;9.482;2022-07-29T10:00:42;6.55;;;3.28;;
69956;SDS011;57283;54.816;9.482;2022-07-29T10:03:10;7.90;;;3.20;;
69956;SDS011;57283;54.816;9.482;2022-07-29T10:05:39;6.45;;;2.97;;
69956;SDS011;57283;54.816;9.482;2022-07-29T10:08:08;6.65;;;3.30;;
69956;SDS011;57283;54.816;9.482;2022-07-29T10:10:37;7.95;;;3.60;;
69956;SDS011;57283;54.816;9.482;2022-07-29T10:13:05;7.05;;;3.38;;
69956;SDS011;57283;54.816;9.482;2022-07-29T10:15:40;5.57;;;3.50;;
69956;SDS011;57283;54.816;9.482;2022-07-29T10:18:14;7.27;;;3.33;;
69956;SDS011;57283;54.816;9.482;2022-07-29T10:20:43;5.30;;;3.10;;
69956;SDS011;57283;54.816;9.482;2022-07-29T10:23:11;5.85;;;3.30;;
69956;SDS011;57283;54.816;9.482;2022-07-29T10:25:39;7.70;;;3.30;;
69956;SDS011;57283;54.816;9.482;2022-07-29T10:28:11;4.97;;;3.25;;
69956;SDS011;57283;54.816;9.482;2022-07-29T10:30:42;6.00;;;3.40;;
69956;SDS011;57283;54.816;9.482;2022-07-29T10:33:14;5.70;;;3.33;;
69956;SDS011;57283;54.816;9.482;2022-07-29T10:35:49;5.72;;;2.92;;
69956;SDS011;57283;54.816;9.482;2022-07-29T10:41:07;6.60;;;3.60;;
69956;SDS011;57283;54.816;9.482;2022-07-29T10:43:58;7.97;;;3.35;;
69956;SDS011;57283;54.816;9.482;2022-07-29T10:46:26;5.07;;;3.23;;
69956;SDS011;57283;54.816;9.482;2022-07-29T10:49:05;6.07;;;3.30;;
69956;SDS011;57283;54.816;9.482;2022-07-29T10:51:53;5.47;;;3.28;;
69956;SDS011;57283;54.816;9.482;2022-07-29T10:57:18;5.97;;;4.18;;
69956;SDS011;57283;54.816;9.482;2022-07-29T10:59:51;5.32;;;3.80;;
69956;SDS011;57283;54.816;9.482;2022-07-29T11:02:43;5.07;;;3.40;;
69956;SDS011;57283;54.816;9.482;2022-07-29T11:05:13;5.13;;;3.22;;
69956;SDS011;57283;54.816;9.482;2022-07-29T11:10:31;6.15;;;3.55;;
69956;SDS011;57283;54.816;9.482;2022-07-29T11:12:59;6.23;;;3.20;;
69956;SDS011;57283;54.816;9.482;2022-07-29T11:15:27;5.25;;;3.25;;
69956;SDS011;57283;54.816;9.482;2022-07-29T11:18:03;7.43;;;3.70;;
69956;SDS011;57283;54.816;9.482;2022-07-29T11:20:33;6.38;;;3.00;;
69956;SDS011;57283;54.816;9.482;2022-07-29T11:25:54;6.63;;;3.75;;
69956;SDS011;57283;54.816;9.482;2022-07-29T11:28:48;5.50;;;3.30;;
69956;SDS011;57283;54.816;9.482;2022-07-29T11:31:19;6.53;;;3.13;;
69956;SDS011;57283;54.816;9.482;2022-07-29T11:33:47;5.22;;;3.58;;
69956;SDS011;57283;54.816;9.482;2022-07-29T11:36:36;5.40;;;3.17;;
69956;SDS011;57283;54.816;9.482;2022-07-29T11:39:27;6.07;;;3.30;;
69956;SDS011;57283;54.816;9.482;2022-07-29T11:44:58;6.30;;;3.65;;
69956;SDS011;57283;54.816;9.482;2022-07-29T11:47:47;4.80;;;3.20;;
69956;SDS011;57283;54.816;9.482;2022-07-29T11:50:16;4.87;;;3.23;;
69956;SDS011;57283;54.816;9.482;2022-07-29T11:52:53;6.57;;;3.65;;
69956;SDS011;57283;54.816;9.482;2022-07-29T11:55:22;7.25;;;2.75;;
69956;SDS011;57283;54.816;9.482;2022-07-29T11:57:58;4.68;;;2.85;;
69956;SDS011;57283;54.816;9.482;2022-07-29T12:00:30;5.20;;;2.85;;
69956;SDS011;57283;54.816;9.482;2022-07-29T12:02:59;6.83;;;2.70;;
69956;SDS011;57283;54.816;9.482;2022-07-29T12:05:32;6.07;;;3.03;;
69956;SDS011;57283;54.816;9.482;2022-07-29T12:08:06;5.70;;;2.80;;
69956;SDS011;57283;54.816;9.482;2022-07-29T12:10:40;4.50;;;2.80;;
69956;SDS011;57283;54.816;9.482;2022-07-29T12:13:08;6.32;;;2.70;;
69956;SDS011;57283;54.816;9.482;2022-07-29T12:15:37;6.18;;;2.47;;
69956;SDS011;57283;54.816;9.482;2022-07-29T12:18:15;6.17;;;2.50;;
69956;SDS011;57283;54.816;9.482;2022-07-29T12:20:43;4.65;;;2.72;;
69956;SDS011;57283;54.816;9.482;2022-07-29T12:23:13;6.07;;;2.70;;
69956;SDS011;57283;54.816;9.482;2022-07-29T12:25:42;6.00;;;2.70;;
69956;SDS011;57283;54.816;9.482;2022-07-29T12:28:15;8.15;;;3.03;;
69956;SDS011;57283;54.816;9.482;2022-07-29T12:30:52;6.80;;;2.50;;
69956;SDS011;57283;54.816;9.482;2022-07-29T12:33:21;4.45;;;2.50;;
69956;SDS011;57283;54.816;9.482;2022-07-29T12:35:49;5.70;;;2.95;;
69956;SDS011;57283;54.816;9.482;2022-07-29T12:38:33;4.63;;;3.08;;
69956;SDS011;57283;54.816;9.482;2022-07-29T12:41:02;5.22;;;2.75;;
69956;SDS011;57283;54.816;9.482;2022-07-29T12:43:30;6.10;;;3.23;;
69956;SDS011;57283;54.816;9.482;2022-07-29T12:46:10;6.07;;;2.88;;
69956;SDS011;57283;54.816;9.482;2022-07-29T12:48:39;5.53;;;3.00;;
69956;SDS011;57283;54.816;9.482;2022-07-29T12:51:07;5.82;;;2.50;;
69956;SDS011;57283;54.816;9.482;2022-07-29T12:53:36;5.55;;;2.83;;
69956;SDS011;57283;54.816;9.482;2022-07-29T12:56:05;6.33;;;2.60;;
69956;SDS011;57283;54.816;9.482;2022-07-29T12:58:53;5.23;;;2.40;;
69956;SDS011;57283;54.816;9.482;2022-07-29T13:01:20;3.95;;;2.28;;
69956;SDS011;57283;54.816;9.482;2022-07-29T13:03:49;6.43;;;2.60;;
69956;SDS011;57283;54.816;9.482;2022-07-29T13:06:34;5.45;;;2.60;;
69956;SDS011;57283;54.816;9.482;2022-07-29T13:09:07;6.05;;;2.72;;
69956;SDS011;57283;54.816;9.482;2022-07-29T13:11:35;4.20;;;2.23;;
69956;SDS011;57283;54.816;9.482;2022-07-29T13:14:04;5.35;;;2.60;;
69956;SDS011;57283;54.816;9.482;2022-07-29T13:16:32;4.43;;;2.42;;
69956;SDS011;57283;54.816;9.482;2022-07-29T13:19:04;4.90;;;2.20;;
69956;SDS011;57283;54.816;9.482;2022-07-29T13:21:32;4.95;;;2.47;;
69956;SDS011;57283;54.816;9.482;2022-07-29T13:23:59;4.73;;;2.20;;
69956;SDS011;57283;54.816;9.482;2022-07-29T13:26:28;4.80;;;2.55;;
69956;SDS011;57283;54.816;9.482;2022-07-29T13:28:56;5.88;;;2.10;;
69956;SDS011;57283;54.816;9.482;2022-07-29T13:31:24;5.50;;;2.55;;
69956;SDS011;57283;54.816;9.482;2022-07-29T13:33:51;4.45;;;2.10;;
69956;SDS011;57283;54.816;9.482;2022-07-29T13:36:19;5.30;;;2.43;;
69956;SDS011;57283;54.816;9.482;2022-07-29T13:38:47;7.05;;;2.65;;
69956;SDS011;57283;54.816;9.482;2022-07-29T13:41:14;4.30;;;2.53;;
69956;SDS011;57283;54.816;9.482;2022-07-29T13:43:44;6.80;;;2.30;;
69956;SDS011;57283;54.816;9.482;2022-07-29T13:46:15;7.13;;;2.60;;
69956;SDS011;57283;54.816;9.482;2022-07-29T13:48:43;6.57;;;2.70;;
69956;SDS011;57283;54.816;9.482;2022-07-29T13:51:10;6.15;;;2.60;;
69956;SDS011;57283;54.816;9.482;2022-07-29T13:53:38;6.20;;;2.72;;
69956;SDS011;57283;54.816;9.482;2022-07-29T13:56:06;4.97;;;2.60;;
69956;SDS011;57283;54.816;9.482;2022-07-29T13:58:34;5.80;;;2.45;;
69956;SDS011;57283;54.816;9.482;2022-07-29T14:01:03;5.67;;;2.20;;
69956;SDS011;57283;54.816;9.482;2022-07-29T14:03:31;3.58;;;2.30;;
69956;SDS011;57283;54.816;9.482;2022-07-29T14:05:58;4.65;;;2.50;;
69956;SDS011;57283;54.816;9.482;2022-07-29T14:08:27;5.13;;;2.83;;
69956;SDS011;57283;54.816;9.482;2022-07-29T14:10:54;5.18;;;2.92;;
69956;SDS011;57283;54.816;9.482;2022-07-29T14:13:22;7.63;;;2.60;;
69956;SDS011;57283;54.816;9.482;2022-07-29T14:15:51;4.55;;;2.10;;
69956;SDS011;57283;54.816;9.482;2022-07-29T14:18:21;5.00;;;2.30;;
69956;SDS011;57283;54.816;9.482;2022-07-29T14:20:48;5.25;;;2.13;;
69956;SDS011;57283;54.816;9.482;2022-07-29T14:23:17;5.20;;;2.22;;
69956;SDS011;57283;54.816;9.482;2022-07-29T14:25:45;5.57;;;2.57;;
69956;SDS011;57283;54.816;9.482;2022-07-29T14:28:14;4.57;;;2.38;;
69956;SDS011;57283;54.816;9.482;2022-07-29T14:30:42;8.18;;;2.30;;
69956;SDS011;57283;54.816;9.482;2022-07-29T14:33:10;4.88;;;2.00;;
69956;SDS011;57283;54.816;9.482;2022-07-29T14:35:39;7.43;;;2.72;;
69956;SDS011;57283;54.816;9.482;2022-07-29T14:38:07;5.40;;;2.20;;
69956;SDS011;57283;54.816;9.482;2022-07-29T14:40:35;5.15;;;2.30;;
69956;SDS011;57283;54.816;9.482;2022-07-29T14:43:03;7.07;;;2.13;;
69956;SDS011;57283;54.816;9.482;2022-07-29T14:45:31;6.20;;;2.15;;
69956;SDS011;57283;54.816;9.482;2022-07-29T14:47:59;5.05;;;2.10;;
69956;SDS011;57283;54.816;9.482;2022-07-29T14:50:27;4.97;;;2.20;;
69956;SDS011;57283;54.816;9.482;2022-07-29T14:52:58;4.65;;;2.20;;
69956;SDS011;57283;54.816;9.482;2022-07-29T14:55:26;8.35;;;2.97;;
69956;SDS011;57283;54.816;9.482;2022-07-29T14:57:54;5.13;;;3.03;;
69956;SDS011;57283;54.816;9.482;2022-07-29T15:00:35;5.78;;;2.17;;
69956;SDS011;57283;54.816;9.482;2022-07-29T15:03:03;5.17;;;1.90;;
69956;SDS011;57283;54.816;9.482;2022-07-29T15:05:31;4.93;;;1.95;;
69956;SDS011;57283;54.816;9.482;2022-07-29T15:08:00;6.15;;;2.30;;
69956;SDS011;57283;54.816;9.482;2022-07-29T15:10:29;5.78;;;2.10;;
69956;SDS011;57283;54.816;9.482;2022-07-29T15:12:57;4.95;;;2.08;;
69956;SDS011;57283;54.816;9.482;2022-07-29T15:15:25;5.40;;;2.37;;
69956;SDS011;57283;54.816;9.482;2022-07-29T15:17:53;4.60;;;2.20;;
69956;SDS011;57283;54.816;9.482;2022-07-29T15:20:20;5.88;;;2.05;;
69956;SDS011;57283;54.816;9.482;2022-07-29T15:22:51;6.18;;;2.47;;
69956;SDS011;57283;54.816;9.482;2022-07-29T15:25:20;5.68;;;2.53;;